sensor_id;sensor_type;location;lat;lon;timestamp;P1;durP1;ratioP1;P2;durP2;ratioP2
59974;SDS011;62136;-35.664;-63.766;2023-01-10T00:00:40;6.47;;;2.60;;
59974;SDS011;62136;-35.664;-63.766;2023-01-10T00:03:08;3.15;;;2.17;;
59974;SDS011;62136;-35.664;-63.766;2023-01-10T00:05:38;4.95;;;2.17;;
59974;SDS011;62136;-35.664;-63.766;2023-01-10T00:08:06;3.92;;;2.60;;
59974;SDS011;62136;-35.664;-63.766;2023-01-10T00:10:35;2.88;;;1.90;;
59974;SDS011;62136;-35.664;-63.766;2023-01-10T00:13:02;4.35;;;2.17;;
59974;SDS011;62136;-35.664;-63.766;2023-01-10T00:15:48;3.45;;;2.20;;
59974;SDS011;62136;-35.664;-63.766;2023-01-10T00:18:21;3.75;;;2.10;;
59974;SDS011;62136;-35.664;-63.766;2023-01-10T00:20:48;3.40;;;2.08;;
59974;SDS011;62136;-35.664;-63.766;2023-01-10T00:23:15;3.22;;;2.33;;
59974;SDS011;62136;-35.664;-63.766;2023-01-10T00:25:43;3.28;;;2.33;;
59974;SDS011;62136;-35.664;-63.766;2023-01-10T00:28:10;5.10;;;2.20;;
59974;SDS011;62136;-35.664;-63.766;2023-01-10T00:30:40;3.92;;;2.22;;
59974;SDS011;62136;-35.664;-63.766;2023-01-10T00:33:07;3.70;;;1.98;;
59974;SDS011;62136;-35.664;-63.766;2023-01-10T00:35:44;4.32;;;2.35;;
59974;SDS011;62136;-35.664;-63.766;2023-01-10T00:38:12;3.63;;;2.30;;
59974;SDS011;62136;-35.664;-63.766;2023-01-10T00:40:40;2.53;;;2.10;;
59974;SDS011;62136;-35.664;-63.766;2023-01-10T00:43:08;3.53;;;1.80;;
59974;SDS011;62136;-35.664;-63.766;2023-01-10T00:45:53;3.17;;;1.92;;
59974;SDS011;62136;-35.664;-63.766;2023-01-10T00:48:22;3.72;;;2.20;;
59974;SDS011;62136;-35.664;-63.766;2023-01-10T00:50:49;3.35;;;2.00;;
59974;SDS011;62136;-35.664;-63.766;2023-01-10T00:53:16;4.13;;;2.00;;
59974;SDS011;62136;-35.664;-63.766;2023-01-10T00:55:43;2.72;;;1.95;;
59974;SDS011;62136;-35.664;-63.766;2023-01-10T00:58:11;3.30;;;2.17;;
59974;SDS011;62136;-35.664;-63.766;2023-01-10T01:00:40;3.63;;;2.40;;
59974;SDS011;62136;-35.664;-63.766;2023-01-10T01:03:11;3.58;;;1.90;;
59974;SDS011;62136;-35.664;-63.766;2023-01-10T01:05:39;3.50;;;2.15;;
59974;SDS011;62136;-35.664;-63.766;2023-01-10T01:08:07;4.80;;;2.30;;
59974;SDS011;62136;-35.664;-63.766;2023-01-10T01:10:35;2.45;;;1.90;;
59974;SDS011;62136;-35.664;-63.766;2023-01-10T01:13:08;2.88;;;2.13;;
59974;SDS011;62136;-35.664;-63.766;2023-01-10T01:15:36;3.20;;;2.17;;
59974;SDS011;62136;-35.664;-63.766;2023-01-10T01:18:03;4.70;;;2.35;;
59974;SDS011;62136;-35.664;-63.766;2023-01-10T01:20:31;3.22;;;2.20;;
59974;SDS011;62136;-35.664;-63.766;2023-01-10T01:22:58;3.80;;;2.40;;
59974;SDS011;62136;-35.664;-63.766;2023-01-10T01:25:25;4.40;;;2.40;;
59974;SDS011;62136;-35.664;-63.766;2023-01-10T01:27:55;2.28;;;1.90;;
59974;SDS011;62136;-35.664;-63.766;2023-01-10T01:30:25;5.05;;;2.25;;
59974;SDS011;62136;-35.664;-63.766;2023-01-10T01:32:55;2.75;;;2.10;;
59974;SDS011;62136;-35.664;-63.766;2023-01-10T01:35:22;4.40;;;2.33;;
59974;SDS011;62136;-35.664;-63.766;2023-01-10T01:37:49;3.50;;;2.30;;
59974;SDS011;62136;-35.664;-63.766;2023-01-10T01:40:20;2.65;;;1.90;;
59974;SDS011;62136;-35.664;-63.766;2023-01-10T01:42:48;3.03;;;2.20;;
59974;SDS011;62136;-35.664;-63.766;2023-01-10T01:53:47;5.53;;;1.95;;
59974;SDS011;62136;-35.664;-63.766;2023-01-10T01:56:26;2.65;;;1.98;;
59974;SDS011;62136;-35.664;-63.766;2023-01-10T01:59:06;3.42;;;2.08;;
59974;SDS011;62136;-35.664;-63.766;2023-01-10T02:01:40;2.38;;;2.10;;
59974;SDS011;62136;-35.664;-63.766;2023-01-10T02:04:16;2.20;;;2.00;;
59974;SDS011;62136;-35.664;-63.766;2023-01-10T02:06:47;4.88;;;2.10;;
59974;SDS011;62136;-35.664;-63.766;2023-01-10T02:12:07;3.95;;;2.22;;
59974;SDS011;62136;-35.664;-63.766;2023-01-10T02:14:35;2.35;;;2.00;;
59974;SDS011;62136;-35.664;-63.766;2023-01-10T02:17:02;2.92;;;1.92;;
59974;SDS011;62136;-35.664;-63.766;2023-01-10T02:32:59;3.00;;;2.00;;
59974;SDS011;62136;-35.664;-63.766;2023-01-10T02:35:49;3.45;;;1.95;;
59974;SDS011;62136;-35.664;-63.766;2023-01-10T02:44:06;3.17;;;2.17;;
59974;SDS011;62136;-35.664;-63.766;2023-01-10T02:46:43;3.05;;;1.85;;
59974;SDS011;62136;-35.664;-63.766;2023-01-10T02:49:11;2.13;;;1.90;;
59974;SDS011;62136;-35.664;-63.766;2023-01-10T02:51:38;2.70;;;2.08;;
59974;SDS011;62136;-35.664;-63.766;2023-01-10T02:54:12;3.55;;;1.90;;
59974;SDS011;62136;-35.664;-63.766;2023-01-10T02:56:58;3.63;;;2.00;;
59974;SDS011;62136;-35.664;-63.766;2023-01-10T03:10:59;2.40;;;1.85;;
59974;SDS011;62136;-35.664;-63.766;2023-01-10T03:16:22;3.13;;;2.00;;
59974;SDS011;62136;-35.664;-63.766;2023-01-10T03:19:11;2.80;;;2.05;;
59974;SDS011;62136;-35.664;-63.766;2023-01-10T03:21:41;2.22;;;1.90;;
59974;SDS011;62136;-35.664;-63.766;2023-01-10T03:24:33;2.83;;;2.22;;
59974;SDS011;62136;-35.664;-63.766;2023-01-10T03:29:44;3.13;;;1.75;;
59974;SDS011;62136;-35.664;-63.766;2023-01-10T03:32:24;2.67;;;1.80;;
59974;SDS011;62136;-35.664;-63.766;2023-01-10T03:34:54;3.60;;;2.03;;
59974;SDS011;62136;-35.664;-63.766;2023-01-10T03:42:49;3.45;;;1.92;;
59974;SDS011;62136;-35.664;-63.766;2023-01-10T03:45:51;3.38;;;1.80;;
59974;SDS011;62136;-35.664;-63.766;2023-01-10T03:48:26;3.80;;;1.70;;
59974;SDS011;62136;-35.664;-63.766;2023-01-10T03:50:56;4.07;;;1.90;;
59974;SDS011;62136;-35.664;-63.766;2023-01-10T03:53:27;3.00;;;1.73;;
59974;SDS011;62136;-35.664;-63.766;2023-01-10T03:55:55;3.03;;;1.70;;
59974;SDS011;62136;-35.664;-63.766;2023-01-10T03:58:22;2.75;;;1.77;;
59974;SDS011;62136;-35.664;-63.766;2023-01-10T04:00:52;3.60;;;1.60;;
59974;SDS011;62136;-35.664;-63.766;2023-01-10T04:03:19;3.13;;;1.80;;
59974;SDS011;62136;-35.664;-63.766;2023-01-10T04:05:46;3.25;;;1.63;;
59974;SDS011;62136;-35.664;-63.766;2023-01-10T04:08:13;2.17;;;1.98;;
59974;SDS011;62136;-35.664;-63.766;2023-01-10T04:10:40;2.83;;;1.80;;
59974;SDS011;62136;-35.664;-63.766;2023-01-10T04:13:10;2.80;;;1.52;;
59974;SDS011;62136;-35.664;-63.766;2023-01-10T04:15:38;1.83;;;1.65;;
59974;SDS011;62136;-35.664;-63.766;2023-01-10T04:18:05;3.13;;;1.85;;
59974;SDS011;62136;-35.664;-63.766;2023-01-10T04:20:32;3.05;;;1.98;;
59974;SDS011;62136;-35.664;-63.766;2023-01-10T04:22:59;4.53;;;2.45;;
59974;SDS011;62136;-35.664;-63.766;2023-01-10T04:25:26;2.33;;;1.52;;
59974;SDS011;62136;-35.664;-63.766;2023-01-10T04:27:53;2.15;;;1.60;;
59974;SDS011;62136;-35.664;-63.766;2023-01-10T04:30:20;2.75;;;1.67;;
59974;SDS011;62136;-35.664;-63.766;2023-01-10T04:32:47;3.28;;;1.85;;
59974;SDS011;62136;-35.664;-63.766;2023-01-10T04:35:14;3.13;;;2.10;;
59974;SDS011;62136;-35.664;-63.766;2023-01-10T04:37:41;3.78;;;1.77;;
59974;SDS011;62136;-35.664;-63.766;2023-01-10T04:40:09;4.25;;;1.77;;
59974;SDS011;62136;-35.664;-63.766;2023-01-10T04:42:37;2.80;;;1.80;;
59974;SDS011;62136;-35.664;-63.766;2023-01-10T04:45:05;4.30;;;1.80;;
59974;SDS011;62136;-35.664;-63.766;2023-01-10T04:47:36;5.60;;;1.92;;
59974;SDS011;62136;-35.664;-63.766;2023-01-10T04:50:03;2.55;;;1.58;;
59974;SDS011;62136;-35.664;-63.766;2023-01-10T04:52:30;3.42;;;2.13;;
59974;SDS011;62136;-35.664;-63.766;2023-01-10T04:54:57;4.38;;;1.98;;
59974;SDS011;62136;-35.664;-63.766;2023-01-10T04:57:24;4.72;;;1.90;;
59974;SDS011;62136;-35.664;-63.766;2023-01-10T04:59:51;2.65;;;2.13;;
59974;SDS011;62136;-35.664;-63.766;2023-01-10T05:02:18;3.67;;;1.48;;
59974;SDS011;62136;-35.664;-63.766;2023-01-10T05:04:48;2.28;;;1.65;;
59974;SDS011;62136;-35.664;-63.766;2023-01-10T05:07:15;4.47;;;1.92;;
59974;SDS011;62136;-35.664;-63.766;2023-01-10T05:09:42;3.38;;;1.67;;
59974;SDS011;62136;-35.664;-63.766;2023-01-10T05:12:09;2.67;;;1.58;;
59974;SDS011;62136;-35.664;-63.766;2023-01-10T05:14:36;2.67;;;1.60;;
59974;SDS011;62136;-35.664;-63.766;2023-01-10T05:17:03;3.53;;;1.80;;
59974;SDS011;62136;-35.664;-63.766;2023-01-10T05:19:33;4.55;;;1.80;;
59974;SDS011;62136;-35.664;-63.766;2023-01-10T05:22:03;2.88;;;1.40;;
59974;SDS011;62136;-35.664;-63.766;2023-01-10T05:24:30;2.05;;;1.60;;
59974;SDS011;62136;-35.664;-63.766;2023-01-10T05:26:57;4.80;;;1.65;;
59974;SDS011;62136;-35.664;-63.766;2023-01-10T05:29:24;2.63;;;1.70;;
59974;SDS011;62136;-35.664;-63.766;2023-01-10T05:31:51;2.47;;;1.55;;
59974;SDS011;62136;-35.664;-63.766;2023-01-10T05:34:18;3.35;;;1.70;;
59974;SDS011;62136;-35.664;-63.766;2023-01-10T05:36:45;3.65;;;1.73;;
59974;SDS011;62136;-35.664;-63.766;2023-01-10T05:39:12;2.15;;;1.60;;
59974;SDS011;62136;-35.664;-63.766;2023-01-10T05:41:39;4.22;;;2.00;;
59974;SDS011;62136;-35.664;-63.766;2023-01-10T05:44:06;2.83;;;1.65;;
59974;SDS011;62136;-35.664;-63.766;2023-01-10T05:46:33;5.50;;;2.03;;
59974;SDS011;62136;-35.664;-63.766;2023-01-10T05:49:01;3.42;;;1.70;;
59974;SDS011;62136;-35.664;-63.766;2023-01-10T05:51:28;3.63;;;1.70;;
59974;SDS011;62136;-35.664;-63.766;2023-01-10T05:53:55;3.22;;;1.60;;
59974;SDS011;62136;-35.664;-63.766;2023-01-10T05:56:23;4.78;;;1.58;;
59974;SDS011;62136;-35.664;-63.766;2023-01-10T05:58:50;3.42;;;1.45;;
59974;SDS011;62136;-35.664;-63.766;2023-01-10T06:01:17;3.17;;;1.50;;
59974;SDS011;62136;-35.664;-63.766;2023-01-10T06:03:47;2.05;;;1.35;;
59974;SDS011;62136;-35.664;-63.766;2023-01-10T06:06:14;5.03;;;1.63;;
59974;SDS011;62136;-35.664;-63.766;2023-01-10T06:08:41;3.47;;;1.50;;
59974;SDS011;62136;-35.664;-63.766;2023-01-10T06:11:08;3.92;;;1.70;;
59974;SDS011;62136;-35.664;-63.766;2023-01-10T06:13:35;3.13;;;1.45;;
59974;SDS011;62136;-35.664;-63.766;2023-01-10T06:16:02;3.47;;;1.48;;
59974;SDS011;62136;-35.664;-63.766;2023-01-10T06:18:29;2.88;;;1.58;;
59974;SDS011;62136;-35.664;-63.766;2023-01-10T06:20:56;4.05;;;1.75;;
59974;SDS011;62136;-35.664;-63.766;2023-01-10T06:23:23;2.53;;;1.45;;
59974;SDS011;62136;-35.664;-63.766;2023-01-10T06:25:51;2.42;;;1.60;;
59974;SDS011;62136;-35.664;-63.766;2023-01-10T06:28:18;2.38;;;1.40;;
59974;SDS011;62136;-35.664;-63.766;2023-01-10T06:30:45;3.50;;;1.48;;
59974;SDS011;62136;-35.664;-63.766;2023-01-10T06:33:12;1.85;;;1.23;;
59974;SDS011;62136;-35.664;-63.766;2023-01-10T06:35:39;2.53;;;1.40;;
59974;SDS011;62136;-35.664;-63.766;2023-01-10T06:38:06;2.00;;;1.40;;
59974;SDS011;62136;-35.664;-63.766;2023-01-10T06:40:33;2.58;;;1.52;;
59974;SDS011;62136;-35.664;-63.766;2023-01-10T06:43:00;3.30;;;1.50;;
59974;SDS011;62136;-35.664;-63.766;2023-01-10T06:45:27;3.60;;;1.38;;
59974;SDS011;62136;-35.664;-63.766;2023-01-10T06:47:54;2.70;;;1.70;;
59974;SDS011;62136;-35.664;-63.766;2023-01-10T06:50:21;2.63;;;1.48;;
59974;SDS011;62136;-35.664;-63.766;2023-01-10T06:52:56;3.17;;;1.40;;
59974;SDS011;62136;-35.664;-63.766;2023-01-10T06:55:24;2.65;;;1.48;;
59974;SDS011;62136;-35.664;-63.766;2023-01-10T06:57:58;2.08;;;1.55;;
59974;SDS011;62136;-35.664;-63.766;2023-01-10T07:00:27;1.48;;;1.20;;
59974;SDS011;62136;-35.664;-63.766;2023-01-10T07:02:58;3.72;;;1.58;;
59974;SDS011;62136;-35.664;-63.766;2023-01-10T07:05:27;2.65;;;1.50;;
59974;SDS011;62136;-35.664;-63.766;2023-01-10T07:07:55;2.30;;;1.50;;
59974;SDS011;62136;-35.664;-63.766;2023-01-10T07:10:23;3.85;;;1.40;;
59974;SDS011;62136;-35.664;-63.766;2023-01-10T07:12:50;2.03;;;1.40;;
59974;SDS011;62136;-35.664;-63.766;2023-01-10T07:15:19;3.72;;;1.60;;
59974;SDS011;62136;-35.664;-63.766;2023-01-10T07:17:46;2.35;;;1.30;;
59974;SDS011;62136;-35.664;-63.766;2023-01-10T07:20:13;2.95;;;1.40;;
59974;SDS011;62136;-35.664;-63.766;2023-01-10T07:22:40;3.45;;;1.70;;
59974;SDS011;62136;-35.664;-63.766;2023-01-10T07:25:07;2.10;;;1.45;;
59974;SDS011;62136;-35.664;-63.766;2023-01-10T07:27:34;2.78;;;1.50;;
59974;SDS011;62136;-35.664;-63.766;2023-01-10T07:30:05;3.28;;;1.33;;
59974;SDS011;62136;-35.664;-63.766;2023-01-10T07:32:32;2.47;;;1.60;;
59974;SDS011;62136;-35.664;-63.766;2023-01-10T07:34:59;3.10;;;1.50;;
59974;SDS011;62136;-35.664;-63.766;2023-01-10T07:37:26;3.05;;;1.50;;
59974;SDS011;62136;-35.664;-63.766;2023-01-10T07:39:53;2.78;;;1.48;;
59974;SDS011;62136;-35.664;-63.766;2023-01-10T07:42:20;2.78;;;1.85;;
59974;SDS011;62136;-35.664;-63.766;2023-01-10T07:44:47;2.67;;;1.50;;
59974;SDS011;62136;-35.664;-63.766;2023-01-10T07:47:14;2.72;;;1.63;;
59974;SDS011;62136;-35.664;-63.766;2023-01-10T07:49:41;2.92;;;1.70;;
59974;SDS011;62136;-35.664;-63.766;2023-01-10T07:52:08;2.95;;;1.52;;
59974;SDS011;62136;-35.664;-63.766;2023-01-10T07:54:35;3.47;;;1.50;;
59974;SDS011;62136;-35.664;-63.766;2023-01-10T07:57:02;2.88;;;1.35;;
59974;SDS011;62136;-35.664;-63.766;2023-01-10T07:59:29;1.65;;;1.50;;
59974;SDS011;62136;-35.664;-63.766;2023-01-10T08:01:56;3.50;;;1.60;;
59974;SDS011;62136;-35.664;-63.766;2023-01-10T08:04:24;3.00;;;1.60;;
59974;SDS011;62136;-35.664;-63.766;2023-01-10T08:06:53;2.50;;;1.45;;
59974;SDS011;62136;-35.664;-63.766;2023-01-10T08:09:23;3.17;;;1.85;;
59974;SDS011;62136;-35.664;-63.766;2023-01-10T08:11:50;4.07;;;1.70;;
59974;SDS011;62136;-35.664;-63.766;2023-01-10T08:14:17;3.47;;;1.70;;
59974;SDS011;62136;-35.664;-63.766;2023-01-10T08:16:44;2.75;;;1.50;;
59974;SDS011;62136;-35.664;-63.766;2023-01-10T08:19:11;1.95;;;1.38;;
59974;SDS011;62136;-35.664;-63.766;2023-01-10T08:21:41;2.22;;;1.45;;
59974;SDS011;62136;-35.664;-63.766;2023-01-10T08:24:09;2.65;;;1.80;;
59974;SDS011;62136;-35.664;-63.766;2023-01-10T08:26:36;1.98;;;1.40;;
59974;SDS011;62136;-35.664;-63.766;2023-01-10T08:29:03;3.08;;;1.50;;
59974;SDS011;62136;-35.664;-63.766;2023-01-10T08:31:30;3.20;;;1.48;;
59974;SDS011;62136;-35.664;-63.766;2023-01-10T08:33:57;2.35;;;1.20;;
59974;SDS011;62136;-35.664;-63.766;2023-01-10T08:36:24;3.60;;;1.73;;
59974;SDS011;62136;-35.664;-63.766;2023-01-10T08:38:56;2.97;;;1.67;;
59974;SDS011;62136;-35.664;-63.766;2023-01-10T08:41:23;2.17;;;1.60;;
59974;SDS011;62136;-35.664;-63.766;2023-01-10T08:43:50;1.90;;;1.65;;
59974;SDS011;62136;-35.664;-63.766;2023-01-10T08:46:17;2.95;;;1.60;;
59974;SDS011;62136;-35.664;-63.766;2023-01-10T08:48:44;2.55;;;1.50;;
59974;SDS011;62136;-35.664;-63.766;2023-01-10T08:51:14;3.13;;;1.52;;
59974;SDS011;62136;-35.664;-63.766;2023-01-10T08:53:41;2.33;;;1.55;;
59974;SDS011;62136;-35.664;-63.766;2023-01-10T08:56:09;4.60;;;1.80;;
59974;SDS011;62136;-35.664;-63.766;2023-01-10T08:58:36;2.88;;;1.60;;
59974;SDS011;62136;-35.664;-63.766;2023-01-10T09:01:06;2.38;;;1.38;;
59974;SDS011;62136;-35.664;-63.766;2023-01-10T09:03:36;3.13;;;1.52;;
59974;SDS011;62136;-35.664;-63.766;2023-01-10T09:06:04;1.77;;;1.52;;
59974;SDS011;62136;-35.664;-63.766;2023-01-10T09:08:33;3.45;;;1.80;;
59974;SDS011;62136;-35.664;-63.766;2023-01-10T09:11:01;3.45;;;1.65;;
59974;SDS011;62136;-35.664;-63.766;2023-01-10T09:13:28;1.75;;;1.40;;
59974;SDS011;62136;-35.664;-63.766;2023-01-10T09:15:56;2.50;;;1.48;;
59974;SDS011;62136;-35.664;-63.766;2023-01-10T09:18:24;3.97;;;1.73;;
59974;SDS011;62136;-35.664;-63.766;2023-01-10T09:20:52;3.63;;;1.83;;
59974;SDS011;62136;-35.664;-63.766;2023-01-10T09:23:20;3.28;;;1.77;;
59974;SDS011;62136;-35.664;-63.766;2023-01-10T09:25:49;3.75;;;1.55;;
59974;SDS011;62136;-35.664;-63.766;2023-01-10T09:28:18;2.30;;;1.70;;
59974;SDS011;62136;-35.664;-63.766;2023-01-10T09:30:46;2.75;;;1.63;;
59974;SDS011;62136;-35.664;-63.766;2023-01-10T09:33:13;2.45;;;1.75;;
59974;SDS011;62136;-35.664;-63.766;2023-01-10T09:35:40;3.33;;;1.88;;
59974;SDS011;62136;-35.664;-63.766;2023-01-10T09:38:12;2.03;;;1.77;;
59974;SDS011;62136;-35.664;-63.766;2023-01-10T09:46:11;3.47;;;1.90;;
59974;SDS011;62136;-35.664;-63.766;2023-01-10T09:51:48;2.38;;;1.90;;
59974;SDS011;62136;-35.664;-63.766;2023-01-10T09:56:57;4.63;;;2.20;;
59974;SDS011;62136;-35.664;-63.766;2023-01-10T09:59:28;2.53;;;2.03;;
59974;SDS011;62136;-35.664;-63.766;2023-01-10T10:02:19;3.08;;;2.38;;
59974;SDS011;62136;-35.664;-63.766;2023-01-10T10:07:33;3.28;;;1.90;;
59974;SDS011;62136;-35.664;-63.766;2023-01-10T10:10:00;3.10;;;2.20;;
59974;SDS011;62136;-35.664;-63.766;2023-01-10T10:12:47;3.08;;;2.10;;
59974;SDS011;62136;-35.664;-63.766;2023-01-10T10:15:29;3.58;;;2.60;;
59974;SDS011;62136;-35.664;-63.766;2023-01-10T10:18:09;4.60;;;2.42;;
59974;SDS011;62136;-35.664;-63.766;2023-01-10T10:20:49;3.58;;;2.70;;
59974;SDS011;62136;-35.664;-63.766;2023-01-10T10:40:10;4.28;;;2.78;;
59974;SDS011;62136;-35.664;-63.766;2023-01-10T10:42:51;3.45;;;2.80;;
59974;SDS011;62136;-35.664;-63.766;2023-01-10T10:45:22;2.20;;;2.00;;
59974;SDS011;62136;-35.664;-63.766;2023-01-10T10:48:16;3.58;;;2.30;;
59974;SDS011;62136;-35.664;-63.766;2023-01-10T10:51:01;3.70;;;2.90;;
59974;SDS011;62136;-35.664;-63.766;2023-01-10T10:53:44;3.30;;;2.70;;
59974;SDS011;62136;-35.664;-63.766;2023-01-10T10:56:13;4.53;;;2.95;;
59974;SDS011;62136;-35.664;-63.766;2023-01-10T10:58:46;4.88;;;2.65;;
59974;SDS011;62136;-35.664;-63.766;2023-01-10T11:01:16;5.50;;;2.90;;
59974;SDS011;62136;-35.664;-63.766;2023-01-10T11:03:46;4.35;;;2.88;;
59974;SDS011;62136;-35.664;-63.766;2023-01-10T11:06:17;5.43;;;3.20;;
59974;SDS011;62136;-35.664;-63.766;2023-01-10T11:08:45;3.75;;;3.08;;
59974;SDS011;62136;-35.664;-63.766;2023-01-10T11:13:46;5.22;;;3.33;;
59974;SDS011;62136;-35.664;-63.766;2023-01-10T11:16:28;4.18;;;3.33;;
59974;SDS011;62136;-35.664;-63.766;2023-01-10T11:19:14;5.05;;;3.05;;
59974;SDS011;62136;-35.664;-63.766;2023-01-10T11:21:45;4.30;;;3.15;;
59974;SDS011;62136;-35.664;-63.766;2023-01-10T11:26:56;3.85;;;2.90;;
59974;SDS011;62136;-35.664;-63.766;2023-01-10T11:32:28;5.28;;;3.50;;
59974;SDS011;62136;-35.664;-63.766;2023-01-10T11:35:05;5.57;;;3.38;;
59974;SDS011;62136;-35.664;-63.766;2023-01-10T11:37:57;4.47;;;3.40;;
59974;SDS011;62136;-35.664;-63.766;2023-01-10T11:40:29;5.93;;;3.78;;
59974;SDS011;62136;-35.664;-63.766;2023-01-10T11:42:57;5.97;;;3.42;;
59974;SDS011;62136;-35.664;-63.766;2023-01-10T11:48:06;6.30;;;3.63;;
59974;SDS011;62136;-35.664;-63.766;2023-01-10T11:50:40;4.38;;;3.80;;
59974;SDS011;62136;-35.664;-63.766;2023-01-10T11:53:27;5.03;;;3.30;;
59974;SDS011;62136;-35.664;-63.766;2023-01-10T11:55:56;5.05;;;3.30;;
59974;SDS011;62136;-35.664;-63.766;2023-01-10T11:58:24;4.85;;;3.40;;
59974;SDS011;62136;-35.664;-63.766;2023-01-10T12:00:56;4.75;;;3.45;;
59974;SDS011;62136;-35.664;-63.766;2023-01-10T12:03:31;4.07;;;3.13;;
59974;SDS011;62136;-35.664;-63.766;2023-01-10T12:06:08;7.35;;;3.78;;
59974;SDS011;62136;-35.664;-63.766;2023-01-10T12:08:42;5.68;;;3.65;;
59974;SDS011;62136;-35.664;-63.766;2023-01-10T12:13:53;5.05;;;4.07;;
59974;SDS011;62136;-35.664;-63.766;2023-01-10T12:16:23;5.43;;;3.67;;
59974;SDS011;62136;-35.664;-63.766;2023-01-10T12:18:53;8.50;;;3.85;;
59974;SDS011;62136;-35.664;-63.766;2023-01-10T12:21:29;6.35;;;3.92;;
59974;SDS011;62136;-35.664;-63.766;2023-01-10T12:24:11;7.28;;;4.45;;
59974;SDS011;62136;-35.664;-63.766;2023-01-10T12:26:44;7.32;;;3.95;;
59974;SDS011;62136;-35.664;-63.766;2023-01-10T12:29:16;6.93;;;4.38;;
59974;SDS011;62136;-35.664;-63.766;2023-01-10T12:31:50;8.00;;;3.75;;
59974;SDS011;62136;-35.664;-63.766;2023-01-10T12:34:22;4.82;;;3.60;;
59974;SDS011;62136;-35.664;-63.766;2023-01-10T12:39:45;6.63;;;3.67;;
59974;SDS011;62136;-35.664;-63.766;2023-01-10T12:42:50;5.68;;;3.85;;
59974;SDS011;62136;-35.664;-63.766;2023-01-10T12:45:45;6.60;;;3.83;;
59974;SDS011;62136;-35.664;-63.766;2023-01-10T12:48:42;5.93;;;4.15;;
59974;SDS011;62136;-35.664;-63.766;2023-01-10T12:51:13;5.88;;;3.80;;
59974;SDS011;62136;-35.664;-63.766;2023-01-10T12:53:48;5.28;;;3.50;;
59974;SDS011;62136;-35.664;-63.766;2023-01-10T12:56:26;4.95;;;3.45;;
59974;SDS011;62136;-35.664;-63.766;2023-01-10T12:58:55;5.35;;;3.50;;
59974;SDS011;62136;-35.664;-63.766;2023-01-10T13:01:31;5.75;;;3.33;;
